Time;durP1;ratioP1;P1;durP2;ratioP2;P2;SDS_P1;SDS_P2;PMS_P1;PMS_P2;Temp;Humidity;BMP_temperature;BMP_pressure;BME280_temperature;BME280_humidity;BME280_pressure;Samples;Min_cycle;Max_cycle;Signal;HPM_P1;HPM_P2
2023/12/26 00:01:12;;;;;;;16.67;1.88;;;9.00;99.90;;;;;;5053687;28;20471;-16
2023/12/26 00:03:38;;;;;;;2.75;1.92;;;9.90;99.90;;;;;;5053417;28;20106;-16
2023/12/26 00:06:04;;;;;;;2.70;1.02;;;9.90;99.90;;;;;;5052768;28;20052;-16
2023/12/26 00:08:31;;;;;;;4.38;2.10;;;9.90;99.90;;;;;;5053508;28;20475;-16
2023/12/26 00:10:57;;;;;;;3.05;1.92;;;9.90;99.90;;;;;;5052409;28;20091;-16
2023/12/26 00:13:23;;;;;;;4.18;2.10;;;9.80;99.90;;;;;;5053519;28;20086;-16
2023/12/26 00:15:51;;;;;;;5.38;1.73;;;8.70;99.90;;;;;;5053517;28;20055;-16
2023/12/26 00:18:17;;;;;;;4.55;1.40;;;9.90;99.90;;;;;;5052352;28;20049;-16
2023/12/26 00:20:43;;;;;;;5.82;1.50;;;9.90;99.90;;;;;;5053808;28;20109;-16
2023/12/26 00:23:13;;;;;;;5.85;1.55;;;8.80;99.90;;;;;;5053445;28;20056;-16
2023/12/26 00:25:39;;;;;;;3.75;1.33;;;9.70;99.90;;;;;;5053169;28;20053;-17
2023/12/26 00:28:05;;;;;;;6.60;1.40;;;8.90;99.90;;;;;;5035828;28;20080;-16
2023/12/26 00:30:31;;;;;;;2.63;1.08;;;8.90;99.90;;;;;;5035383;28;20053;-16
2023/12/26 00:32:57;;;;;;;2.10;0.85;;;9.40;99.90;;;;;;5053383;28;20045;-16
2023/12/26 00:35:22;;;;;;;4.10;0.80;;;9.10;99.90;;;;;;5053669;28;20087;-16
2023/12/26 00:37:48;;;;;;;3.45;1.25;;;10.00;99.90;;;;;;5052160;28;20044;-16
2023/12/26 00:40:15;;;;;;;2.35;0.80;;;9.50;99.90;;;;;;5052134;28;20095;-16
2023/12/26 00:42:43;;;;;;;2.45;0.63;;;8.70;99.90;;;;;;5052039;28;20131;-17
2023/12/26 00:45:09;;;;;;;2.65;0.85;;;9.10;99.90;;;;;;5053809;28;20045;-16
2023/12/26 00:47:36;;;;;;;2.38;0.68;;;9.70;99.90;;;;;;5053242;28;20088;-17
2023/12/26 00:50:02;;;;;;;2.38;0.40;;;8.70;99.90;;;;;;5052001;28;20041;-17
2023/12/26 00:52:30;;;;;;;2.88;0.30;;;9.00;99.90;;;;;;5053176;28;20052;-16
2023/12/26 00:54:56;;;;;;;3.47;0.50;;;9.90;99.90;;;;;;5053172;28;20193;-17
2023/12/26 00:57:22;;;;;;;6.35;1.00;;;9.60;99.90;;;;;;5051962;28;20130;-16
2023/12/26 00:59:48;;;;;;;5.13;0.40;;;9.90;99.90;;;;;;5053170;28;20098;-16
2023/12/26 01:02:13;;;;;;;5.18;0.60;;;9.40;99.90;;;;;;5053103;28;20255;-16
2023/12/26 01:04:39;;;;;;;3.80;0.50;;;9.70;99.90;;;;;;5019363;28;20045;-16
2023/12/26 01:07:06;;;;;;;6.93;1.40;;;8.70;99.90;;;;;;5053086;28;20052;-16
2023/12/26 01:09:33;;;;;;;2.15;0.30;;;9.40;99.90;;;;;;5053043;28;20049;-17
2023/12/26 01:11:59;;;;;;;3.97;0.68;;;8.80;99.90;;;;;;5052997;28;20049;-17
2023/12/26 01:14:25;;;;;;;5.57;1.85;;;8.80;99.90;;;;;;5035578;28;20059;-17
2023/12/26 01:16:51;;;;;;;5.22;0.68;;;9.70;99.90;;;;;;5056690;28;20044;-17
2023/12/26 01:19:17;;;;;;;4.00;0.75;;;9.80;99.90;;;;;;5039159;28;20041;-17
2023/12/26 01:21:43;;;;;;;4.88;0.95;;;9.90;99.90;;;;;;5056604;28;20036;-17
2023/12/26 01:24:09;;;;;;;8.70;1.67;;;9.80;99.90;;;;;;5056831;28;20049;-17
2023/12/26 01:26:34;;;;;;;5.32;0.95;;;8.80;99.90;;;;;;5056301;28;20384;-17
2023/12/26 01:29:01;;;;;;;11.48;1.20;;;9.80;99.90;;;;;;5056299;28;20096;-17
2023/12/26 01:31:27;;;;;;;5.50;0.80;;;9.30;99.90;;;;;;5055170;28;20049;-17
2023/12/26 01:33:53;;;;;;;15.88;1.55;;;9.50;99.90;;;;;;5055207;28;20053;-17
2023/12/26 01:36:19;;;;;;;5.55;0.65;;;9.10;99.90;;;;;;5056343;28;20056;-17
2023/12/26 01:38:45;;;;;;;7.43;1.30;;;8.60;99.90;;;;;;5038694;28;20053;-17
2023/12/26 01:41:11;;;;;;;18.67;1.58;;;9.80;99.90;;;;;;5055633;28;20101;-17
2023/12/26 01:43:37;;;;;;;16.90;2.13;;;9.30;99.90;;;;;;5056170;28;20063;-17
2023/12/26 01:46:03;;;;;;;13.80;2.05;;;8.70;99.90;;;;;;5054980;28;20049;-17
2023/12/26 01:48:30;;;;;;;12.05;1.50;;;9.70;99.90;;;;;;5055040;28;20530;-17
2023/12/26 01:50:57;;;;;;;12.85;1.38;;;9.20;99.90;;;;;;5056902;28;20049;-17
2023/12/26 01:53:23;;;;;;;9.60;1.80;;;9.60;99.90;;;;;;5055996;28;20056;-17
2023/12/26 01:55:50;;;;;;;13.50;2.03;;;9.20;99.90;;;;;;5055144;28;20049;-17
2023/12/26 01:58:16;;;;;;;13.13;1.90;;;9.10;99.90;;;;;;5055784;28;20099;-17
2023/12/26 02:00:43;;;;;;;17.73;1.98;;;8.80;99.90;;;;;;5055912;28;20049;-18
2023/12/26 02:03:08;;;;;;;17.35;1.95;;;8.80;99.90;;;;;;5055765;28;20106;-17
2023/12/26 02:05:35;;;;;;;9.65;1.50;;;8.80;99.90;;;;;;5055113;28;20048;-17
2023/12/26 02:08:01;;;;;;;13.50;1.67;;;8.90;99.90;;;;;;5055026;28;20571;-17
2023/12/26 02:10:27;;;;;;;11.13;1.98;;;9.20;99.90;;;;;;5037574;28;20087;-17
2023/12/26 02:12:53;;;;;;;12.00;1.63;;;9.20;99.90;;;;;;5055656;28;20081;-17
2023/12/26 02:15:19;;;;;;;12.40;2.22;;;9.10;99.90;;;;;;5054517;28;20047;-17
2023/12/26 02:17:46;;;;;;;13.23;2.40;;;9.10;99.90;;;;;;5055596;28;20067;-17
2023/12/26 02:20:11;;;;;;;10.90;2.17;;;9.10;99.90;;;;;;5054590;28;20045;-17
2023/12/26 02:22:38;;;;;;;7.65;2.35;;;9.20;99.90;;;;;;5056283;28;20118;-17
2023/12/26 02:25:08;;;;;;;14.25;2.15;;;8.90;99.90;;;;;;5055328;28;20044;-17
2023/12/26 02:27:37;;;;;;;8.48;1.85;;;9.00;99.90;;;;;;5055029;28;20053;-17
2023/12/26 02:30:05;;;;;;;12.52;1.90;;;9.00;99.90;;;;;;5055167;28;20052;-17
2023/12/26 02:32:34;;;;;;;17.23;2.20;;;9.00;99.90;;;;;;5054128;28;20049;-17
2023/12/26 02:35:02;;;;;;;9.55;1.40;;;8.90;99.90;;;;;;5055183;28;20056;-17
2023/12/26 02:37:28;;;;;;;9.93;1.20;;;9.00;99.90;;;;;;5055141;28;20057;-17
2023/12/26 02:39:54;;;;;;;7.82;1.92;;;8.80;99.90;;;;;;5053974;28;20040;-17
2023/12/26 02:42:21;;;;;;;12.63;2.15;;;8.80;99.90;;;;;;5055076;28;20055;-17
2023/12/26 02:44:48;;;;;;;17.38;2.80;;;8.80;99.90;;;;;;5054068;28;20483;-17
2023/12/26 02:47:14;;;;;;;11.13;2.00;;;8.70;99.90;;;;;;5054958;28;20560;-17
2023/12/26 02:49:40;;;;;;;11.25;2.28;;;8.70;99.90;;;;;;5036721;28;20132;-17
2023/12/26 02:52:06;;;;;;;10.52;1.35;;;8.60;99.90;;;;;;5054538;28;20045;-17
2023/12/26 02:54:32;;;;;;;14.60;2.65;;;8.70;99.90;;;;;;5055452;28;20110;-17
2023/12/26 02:56:57;;;;;;;10.63;2.25;;;8.60;99.90;;;;;;5053619;28;20056;-17
2023/12/26 02:59:23;;;;;;;19.42;3.22;;;8.60;99.90;;;;;;5054811;28;20060;-17
2023/12/26 03:01:49;;;;;;;10.27;2.45;;;8.50;99.90;;;;;;5054991;28;20051;-17
2023/12/26 03:04:15;;;;;;;13.40;1.50;;;8.50;99.90;;;;;;5053489;28;20037;-17
2023/12/26 03:06:41;;;;;;;12.63;1.98;;;8.40;99.90;;;;;;5053677;28;20044;-17
2023/12/26 03:09:08;;;;;;;11.95;1.90;;;8.40;99.90;;;;;;5037254;28;20052;-17
2023/12/26 03:11:34;;;;;;;11.05;1.55;;;8.40;99.90;;;;;;5053940;28;20053;-17
2023/12/26 03:14:00;;;;;;;6.47;1.50;;;8.40;99.90;;;;;;5054539;28;20049;-17
2023/12/26 03:16:26;;;;;;;10.30;1.83;;;8.30;99.90;;;;;;5054426;28;20040;-17
2023/12/26 03:18:51;;;;;;;9.55;1.77;;;8.20;99.90;;;;;;5053285;28;20041;-17
2023/12/26 03:21:17;;;;;;;10.93;1.50;;;8.20;99.90;;;;;;5053997;28;20049;-17
2023/12/26 03:23:43;;;;;;;7.78;1.92;;;8.20;99.90;;;;;;5054858;28;20090;-18
2023/12/26 03:26:09;;;;;;;13.48;2.08;;;8.20;99.90;;;;;;5053958;28;20474;-18
2023/12/26 03:28:35;;;;;;;17.33;1.67;;;8.10;99.90;;;;;;5054113;28;20053;-17
2023/12/26 03:31:05;;;;;;;10.20;1.88;;;8.10;99.90;;;;;;5054083;28;20041;-18
2023/12/26 03:33:31;;;;;;;9.65;1.60;;;8.10;99.90;;;;;;5054143;28;20076;-18
2023/12/26 03:35:57;;;;;;;8.77;1.23;;;8.00;99.90;;;;;;5053435;28;20111;-18
2023/12/26 03:38:23;;;;;;;21.50;3.13;;;8.00;99.90;;;;;;5036438;28;20499;-18
2023/12/26 03:40:49;;;;;;;8.23;1.55;;;7.90;99.90;;;;;;5053000;28;20139;-18
2023/12/26 03:43:16;;;;;;;8.57;1.70;;;7.90;99.90;;;;;;5053990;28;20048;-18
2023/12/26 03:45:44;;;;;;;13.00;2.28;;;7.90;99.90;;;;;;5054202;28;20049;-17
2023/12/26 03:48:09;;;;;;;12.88;2.28;;;7.90;99.90;;;;;;5053871;28;20060;-18
2023/12/26 03:50:35;;;;;;;12.63;2.50;;;7.80;99.90;;;;;;5053760;28;20037;-18
2023/12/26 03:53:01;;;;;;;13.80;2.60;;;7.70;99.90;;;;;;5053830;28;20101;-18
2023/12/26 03:55:27;;;;;;;16.13;2.80;;;7.60;99.90;;;;;;5053778;28;20498;-18
2023/12/26 03:57:53;;;;;;;10.77;1.77;;;7.60;99.90;;;;;;5053731;28;20071;-18
2023/12/26 04:00:18;;;;;;;11.63;2.03;;;7.50;99.90;;;;;;5053713;28;20052;-18
2023/12/26 04:02:44;;;;;;;17.88;4.13;;;7.30;99.90;;;;;;5053725;28;20045;-18
2023/12/26 04:05:10;;;;;;;16.38;2.25;;;7.30;99.90;;;;;;5054209;28;20052;-18
2023/12/26 04:07:38;;;;;;;20.38;3.58;;;7.40;99.90;;;;;;5053683;28;20056;-18
2023/12/26 04:10:04;;;;;;;18.40;2.83;;;7.30;99.90;;;;;;5053499;28;20471;-18
2023/12/26 04:12:31;;;;;;;14.60;2.35;;;7.30;99.90;;;;;;5053227;28;20506;-18
2023/12/26 04:14:57;;;;;;;17.75;2.65;;;7.20;99.90;;;;;;5053593;28;20059;-17
2023/12/26 04:17:23;;;;;;;13.38;2.45;;;7.20;99.90;;;;;;5052013;28;20053;-18
2023/12/26 04:19:49;;;;;;;12.52;2.58;;;7.30;99.90;;;;;;5052402;28;20124;-18
2023/12/26 04:22:15;;;;;;;16.10;2.40;;;7.20;99.90;;;;;;5052796;28;20440;-18
2023/12/26 04:24:41;;;;;;;15.45;3.72;;;7.10;99.90;;;;;;5054025;28;20128;-18
2023/12/26 04:27:07;;;;;;;23.52;3.08;;;7.00;99.90;;;;;;5053411;28;20057;-18
2023/12/26 04:29:33;;;;;;;10.48;2.17;;;7.00;99.90;;;;;;5053288;28;20123;-18
2023/12/26 04:31:59;;;;;;;9.38;1.80;;;7.10;99.90;;;;;;5053414;28;20456;-18
2023/12/26 04:34:25;;;;;;;20.60;2.53;;;7.10;99.90;;;;;;5053382;28;20049;-18
2023/12/26 04:36:51;;;;;;;15.30;3.10;;;7.20;99.90;;;;;;5053423;28;20398;-18
2023/12/26 04:39:17;;;;;;;12.68;2.65;;;7.20;99.90;;;;;;5053310;28;20038;-18
2023/12/26 04:41:46;;;;;;;11.57;1.75;;;7.20;99.90;;;;;;5052639;28;20053;-18
2023/12/26 04:44:12;;;;;;;18.33;2.90;;;7.20;99.90;;;;;;5053264;28;20049;-18
2023/12/26 04:46:38;;;;;;;17.55;2.00;;;7.10;99.90;;;;;;5053220;28;20071;-18
2023/12/26 04:49:04;;;;;;;19.95;2.63;;;7.10;99.90;;;;;;5053175;28;20085;-18
2023/12/26 04:51:30;;;;;;;20.80;3.13;;;7.10;99.90;;;;;;5057165;28;20137;-18
2023/12/26 04:53:56;;;;;;;15.07;2.00;;;7.20;99.90;;;;;;5056011;28;20049;-18
2023/12/26 04:56:22;;;;;;;11.73;2.53;;;7.20;99.90;;;;;;5039775;28;20129;-18
2023/12/26 04:58:52;;;;;;;13.75;2.10;;;7.30;99.90;;;;;;5056127;28;20154;-18
2023/12/26 05:01:19;;;;;;;19.23;4.15;;;7.40;99.90;;;;;;5055824;28;20502;-18
2023/12/26 05:03:46;;;;;;;13.65;1.95;;;7.40;99.90;;;;;;5055989;28;20497;-18
2023/12/26 05:06:12;;;;;;;8.77;2.38;;;7.40;99.90;;;;;;5056927;28;20132;-18
2023/12/26 05:08:39;;;;;;;16.80;2.38;;;7.50;99.90;;;;;;5056756;28;20063;-18
2023/12/26 05:11:06;;;;;;;14.43;2.75;;;7.50;99.90;;;;;;5056825;28;20053;-18
2023/12/26 05:13:32;;;;;;;13.32;2.40;;;7.60;99.90;;;;;;5056641;28;20045;-18
2023/12/26 05:16:05;;;;;;;10.63;1.83;;;7.70;99.90;;;;;;5056586;28;20140;-18
2023/12/26 05:18:31;;;;;;;17.87;3.03;;;7.70;99.90;;;;;;5022728;28;20107;-18
